Time;durP1;ratioP1;P1;durP2;ratioP2;P2;SDS_P1;SDS_P2;PMS_P1;PMS_P2;Temp;Humidity;BMP_temperature;BMP_pressure;BME280_temperature;BME280_humidity;BME280_pressure;Samples;Min_cycle;Max_cycle;Signal;HPM_P1;HPM_P2
2021/04/20 00:01:32;;;;;;;26.27;13.72;;;3.90;99.90;;;;;;1988010;72;21073;-75
2021/04/20 00:03:58;;;;;;;32.58;13.93;;;3.90;99.90;;;;;;1987883;71;21159;-75
2021/04/20 00:06:24;;;;;;;26.90;13.68;;;4.00;99.90;;;;;;1988032;72;21069;-75
2021/04/20 00:08:50;;;;;;;28.70;13.45;;;4.00;99.90;;;;;;1987986;72;21142;-75
2021/04/20 00:11:17;;;;;;;25.40;14.20;;;4.00;99.90;;;;;;1987862;72;21073;-75
2021/04/20 00:13:43;;;;;;;32.85;15.38;;;4.10;99.90;;;;;;1987817;72;21101;-75
2021/04/20 00:16:09;;;;;;;26.90;14.63;;;4.10;99.90;;;;;;1987940;71;21065;-75
2021/04/20 00:18:35;;;;;;;30.68;13.98;;;4.20;99.90;;;;;;1987830;72;21070;-75
2021/04/20 00:21:01;;;;;;;25.35;14.43;;;4.20;99.90;;;;;;1988202;71;21510;-75
2021/04/20 00:23:27;;;;;;;27.60;14.65;;;4.30;99.90;;;;;;1987970;72;21492;-75
2021/04/20 00:25:53;;;;;;;31.50;13.15;;;4.30;99.90;;;;;;1987847;72;21630;-75
2021/04/20 00:28:20;;;;;;;29.95;13.95;;;4.30;99.90;;;;;;1987875;72;21539;-75
2021/04/20 00:30:46;;;;;;;30.97;14.58;;;4.30;99.90;;;;;;1987861;72;21013;-75
2021/04/20 00:33:12;;;;;;;30.65;15.00;;;4.20;99.90;;;;;;1987955;72;21077;-75
2021/04/20 00:35:38;;;;;;;27.32;13.45;;;4.30;99.90;;;;;;1987963;72;21070;-75
2021/04/20 00:38:04;;;;;;;28.40;13.05;;;4.30;99.90;;;;;;1987999;71;21152;-75
2021/04/20 00:40:30;;;;;;;21.75;13.00;;;4.30;99.90;;;;;;1987982;72;21073;-74
2021/04/20 00:42:56;;;;;;;22.70;12.07;;;4.40;99.90;;;;;;1987744;72;21105;-74
2021/04/20 00:45:22;;;;;;;21.48;12.23;;;4.40;99.90;;;;;;1987769;72;21045;-74
2021/04/20 00:47:48;;;;;;;19.73;11.38;;;4.30;99.90;;;;;;1987958;72;21073;-74
2021/04/20 00:50:15;;;;;;;30.15;12.13;;;4.20;99.90;;;;;;1987858;72;21082;-75
2021/04/20 00:52:41;;;;;;;17.20;10.85;;;4.00;99.90;;;;;;1987956;71;21074;-75
2021/04/20 00:55:07;;;;;;;20.90;11.12;;;3.90;99.90;;;;;;1987782;72;21524;-75
2021/04/20 00:57:33;;;;;;;17.23;10.10;;;3.90;99.90;;;;;;1987786;71;21566;-75
2021/04/20 00:59:59;;;;;;;18.73;9.95;;;3.90;99.90;;;;;;1987754;72;21500;-75
2021/04/20 01:02:25;;;;;;;21.65;10.50;;;3.80;99.90;;;;;;1987981;72;21497;-75
2021/04/20 01:04:51;;;;;;;27.50;11.75;;;3.80;99.90;;;;;;1987781;72;21017;-74
2021/04/20 01:07:17;;;;;;;23.57;12.43;;;3.80;99.90;;;;;;1987969;72;21131;-74
2021/04/20 01:09:44;;;;;;;18.73;11.30;;;3.70;99.90;;;;;;1987741;72;21089;-74
2021/04/20 01:12:10;;;;;;;30.23;13.15;;;3.70;99.90;;;;;;1987967;72;21062;-75
2021/04/20 01:14:36;;;;;;;20.25;11.08;;;3.60;99.90;;;;;;1987710;71;21110;-74
2021/04/20 01:17:02;;;;;;;21.68;11.85;;;3.60;99.90;;;;;;1987930;72;21144;-75
2021/04/20 01:19:28;;;;;;;22.77;12.53;;;3.60;99.90;;;;;;1988051;72;21044;-75
2021/04/20 01:21:54;;;;;;;20.82;11.38;;;3.50;99.90;;;;;;1988063;72;21120;-75
2021/04/20 01:24:21;;;;;;;18.65;11.80;;;3.50;99.90;;;;;;1988040;72;21037;-75
2021/04/20 01:26:48;;;;;;;18.45;11.68;;;3.40;99.90;;;;;;1988103;71;21163;-75
2021/04/20 01:29:14;;;;;;;21.57;12.13;;;3.50;99.90;;;;;;1987720;72;21069;-75
2021/04/20 01:31:40;;;;;;;25.77;11.60;;;3.40;99.90;;;;;;1987928;72;21066;-74
2021/04/20 01:34:07;;;;;;;21.40;12.53;;;3.40;99.90;;;;;;1987705;72;21052;-75
2021/04/20 01:36:33;;;;;;;22.10;12.58;;;3.30;99.90;;;;;;1987825;71;21117;-74
2021/04/20 01:39:00;;;;;;;18.17;11.33;;;3.30;99.90;;;;;;1987937;71;21066;-75
2021/04/20 01:41:26;;;;;;;21.35;12.23;;;3.30;99.90;;;;;;1987782;72;21543;-74
2021/04/20 01:43:52;;;;;;;20.12;10.55;;;3.40;99.90;;;;;;1987875;72;21066;-75
2021/04/20 01:46:18;;;;;;;21.95;12.47;;;3.40;99.90;;;;;;1987671;71;21142;-74
2021/04/20 01:48:44;;;;;;;25.48;12.88;;;3.40;99.90;;;;;;1987900;72;21066;-75
2021/04/20 01:51:10;;;;;;;21.73;12.82;;;3.50;99.90;;;;;;1987656;72;21096;-75
2021/04/20 01:53:38;;;;;;;31.87;15.15;;;3.50;99.90;;;;;;1988114;72;21122;-75
2021/04/20 01:56:04;;;;;;;30.30;13.95;;;3.50;99.90;;;;;;1991816;72;21103;-74
2021/04/20 01:58:30;;;;;;;26.00;15.45;;;3.50;99.90;;;;;;1989926;71;21068;-75
2021/04/20 02:00:56;;;;;;;32.23;17.35;;;3.60;99.90;;;;;;1987954;72;21045;-74
2021/04/20 02:03:22;;;;;;;34.35;17.02;;;3.60;99.90;;;;;;1988878;72;21052;-74
2021/04/20 02:05:48;;;;;;;43.87;18.12;;;3.60;99.90;;;;;;1987707;72;21053;-75
2021/04/20 02:08:15;;;;;;;38.95;16.67;;;3.60;99.90;;;;;;1987736;72;21525;-74
2021/04/20 02:10:41;;;;;;;31.87;16.20;;;3.60;99.90;;;;;;1987701;71;21064;-75
2021/04/20 02:13:07;;;;;;;29.80;16.60;;;3.60;99.90;;;;;;1987877;72;21082;-74
2021/04/20 02:15:34;;;;;;;29.32;16.40;;;3.50;99.90;;;;;;1989075;72;21174;-74
2021/04/20 02:18:00;;;;;;;34.15;15.95;;;3.50;99.90;;;;;;1987810;71;21073;-75
2021/04/20 02:20:26;;;;;;;29.87;16.52;;;3.60;99.90;;;;;;1987886;72;21073;-74
2021/04/20 02:22:52;;;;;;;30.82;16.57;;;3.70;99.90;;;;;;1987851;72;21077;-75
2021/04/20 02:25:18;;;;;;;30.88;15.25;;;3.80;99.90;;;;;;1987645;71;21048;-74
2021/04/20 02:27:45;;;;;;;32.88;16.32;;;3.70;99.90;;;;;;1987840;72;21082;-74
2021/04/20 02:30:11;;;;;;;34.30;16.30;;;3.60;99.90;;;;;;1987633;72;21048;-74
2021/04/20 02:32:37;;;;;;;26.45;13.85;;;3.70;99.90;;;;;;1987847;72;21123;-74
2021/04/20 02:35:03;;;;;;;30.17;16.55;;;3.70;99.90;;;;;;1987617;71;21061;-74
2021/04/20 02:37:29;;;;;;;25.52;14.13;;;3.70;99.90;;;;;;1987647;72;21098;-74
2021/04/20 02:39:55;;;;;;;31.15;14.80;;;3.60;99.90;;;;;;1987890;71;21077;-74
2021/04/20 02:42:21;;;;;;;28.12;14.90;;;3.50;99.90;;;;;;1987914;72;21069;-74
2021/04/20 02:44:47;;;;;;;28.07;14.07;;;3.50;99.90;;;;;;1987916;72;21073;-74
2021/04/20 02:47:13;;;;;;;28.50;12.95;;;3.60;99.90;;;;;;1987906;71;21124;-75
2021/04/20 02:49:40;;;;;;;29.30;12.68;;;3.60;99.90;;;;;;1987899;72;21073;-75
2021/04/20 02:52:06;;;;;;;21.70;11.90;;;3.50;99.90;;;;;;1987891;72;21131;-74
2021/04/20 02:54:32;;;;;;;17.85;10.93;;;3.50;99.90;;;;;;1987838;72;21081;-75
2021/04/20 02:56:58;;;;;;;24.07;11.75;;;3.40;99.90;;;;;;1988032;71;21048;-74
2021/04/20 02:59:24;;;;;;;17.17;10.85;;;3.50;99.90;;;;;;1987862;72;21177;-74
2021/04/20 03:01:50;;;;;;;24.63;11.12;;;3.60;99.90;;;;;;1987986;72;21450;-74
2021/04/20 03:04:17;;;;;;;18.98;11.22;;;3.70;99.90;;;;;;1987845;72;21517;-74
2021/04/20 03:06:43;;;;;;;18.00;11.22;;;3.70;99.90;;;;;;1987928;71;21085;-74
2021/04/20 03:09:09;;;;;;;18.27;10.95;;;3.60;99.90;;;;;;1988021;71;21077;-74
2021/04/20 03:11:35;;;;;;;23.27;12.10;;;3.70;99.90;;;;;;1987872;72;21166;-74
2021/04/20 03:14:06;;;;;;;23.85;11.45;;;3.70;99.90;;;;;;1987881;72;21541;-75
2021/04/20 03:16:29;;;;;;;20.48;12.07;;;3.60;99.90;;;;;;1986944;71;21069;-75
2021/04/20 03:18:55;;;;;;;22.32;11.85;;;3.60;99.90;;;;;;1987847;72;21068;-74
2021/04/20 03:21:22;;;;;;;16.17;11.08;;;3.60;99.90;;;;;;1987964;72;21073;-75
2021/04/20 03:23:48;;;;;;;30.95;13.48;;;3.50;99.90;;;;;;1987754;72;21045;-75
2021/04/20 03:26:14;;;;;;;22.27;12.93;;;3.50;99.90;;;;;;1988001;72;21129;-75
2021/04/20 03:28:40;;;;;;;26.75;13.62;;;3.60;99.90;;;;;;1987933;72;21077;-75
2021/04/20 03:31:06;;;;;;;30.70;14.15;;;3.60;99.90;;;;;;1987911;72;21147;-76
2021/04/20 03:33:32;;;;;;;23.52;13.10;;;3.70;99.90;;;;;;1987998;72;21084;-74
2021/04/20 03:35:58;;;;;;;32.90;13.58;;;3.70;99.90;;;;;;1987772;72;21045;-75
2021/04/20 03:38:25;;;;;;;21.73;12.35;;;3.70;99.90;;;;;;1987978;72;21074;-75
2021/04/20 03:40:51;;;;;;;28.47;13.05;;;3.70;99.90;;;;;;1987722;72;21056;-74
2021/04/20 03:43:17;;;;;;;20.77;12.58;;;3.70;99.90;;;;;;1987900;72;21173;-74
2021/04/20 03:45:43;;;;;;;25.82;12.50;;;3.80;99.90;;;;;;1987750;72;21044;-74
2021/04/20 03:48:09;;;;;;;21.30;12.00;;;3.80;99.90;;;;;;1987945;72;21073;-76
2021/04/20 03:50:35;;;;;;;26.27;12.75;;;3.80;99.90;;;;;;1987625;71;21021;-75
2021/04/20 03:53:01;;;;;;;23.03;13.13;;;3.80;99.90;;;;;;1987959;72;21070;-76
2021/04/20 03:55:28;;;;;;;23.73;12.70;;;3.80;99.90;;;;;;1987857;71;21097;-76
2021/04/20 03:57:54;;;;;;;24.72;13.38;;;3.90;99.90;;;;;;1987853;72;21191;-76
2021/04/20 04:00:20;;;;;;;25.10;12.30;;;3.80;99.90;;;;;;1987826;72;21606;-75
2021/04/20 04:02:46;;;;;;;25.45;14.30;;;3.80;99.90;;;;;;1987963;72;21450;-75
2021/04/20 04:05:12;;;;;;;24.07;12.10;;;3.80;99.90;;;;;;1987724;72;21029;-75
2021/04/20 04:07:38;;;;;;;22.65;11.93;;;3.90;99.90;;;;;;1987938;72;21077;-75
2021/04/20 04:10:04;;;;;;;24.25;11.78;;;3.90;99.90;;;;;;1988083;71;21093;-75
2021/04/20 04:12:30;;;;;;;22.93;11.97;;;3.80;99.90;;;;;;1987916;72;21077;-75
2021/04/20 04:14:57;;;;;;;24.90;11.90;;;3.70;99.90;;;;;;1987994;72;21052;-75
2021/04/20 04:17:23;;;;;;;23.15;12.35;;;3.70;99.90;;;;;;1987938;72;21056;-75
2021/04/20 04:19:49;;;;;;;18.98;11.28;;;3.80;99.90;;;;;;1988049;72;21045;-75
2021/04/20 04:22:15;;;;;;;36.60;11.85;;;3.80;99.90;;;;;;1987693;72;21053;-75
2021/04/20 04:24:41;;;;;;;19.62;11.03;;;3.80;99.90;;;;;;1987754;71;21085;-75
2021/04/20 04:27:07;;;;;;;19.95;11.53;;;3.80;99.90;;;;;;1987941;72;21066;-75
2021/04/20 04:29:33;;;;;;;29.95;12.68;;;3.80;99.90;;;;;;1987673;71;21142;-75
2021/04/20 04:31:59;;;;;;;19.52;11.83;;;3.80;99.90;;;;;;1987712;72;21457;-75
2021/04/20 04:34:26;;;;;;;22.30;12.58;;;3.70;99.90;;;;;;1987882;72;21528;-75
2021/04/20 04:36:52;;;;;;;20.12;12.03;;;3.70;99.90;;;;;;1987883;72;21456;-75
2021/04/20 04:39:18;;;;;;;17.62;11.30;;;3.70;99.90;;;;;;1987763;71;21135;-75
2021/04/20 04:41:44;;;;;;;31.15;12.63;;;3.70;99.90;;;;;;1987821;72;21120;-75
2021/04/20 04:44:10;;;;;;;24.85;13.20;;;3.80;99.90;;;;;;1987880;71;21066;-80
2021/04/20 04:46:36;;;;;;;19.20;11.85;;;3.80;99.90;;;;;;1987901;71;21078;-80
2021/04/20 04:49:02;;;;;;;20.10;11.97;;;3.80;99.90;;;;;;1987886;72;21077;-80
2021/04/20 04:51:29;;;;;;;26.20;11.33;;;3.80;99.90;;;;;;1987881;71;21151;-79
2021/04/20 04:53:55;;;;;;;23.77;12.25;;;3.90;99.90;;;;;;1987820;72;21166;-80
2021/04/20 04:56:21;;;;;;;21.33;11.75;;;3.90;99.90;;;;;;1987906;71;21086;-80
2021/04/20 04:58:47;;;;;;;21.82;12.00;;;3.90;99.90;;;;;;1987918;72;21086;-81
2021/04/20 05:01:13;;;;;;;22.22;12.43;;;4.00;99.90;;;;;;1987857;72;21065;-80
2021/04/20 05:03:39;;;;;;;25.27;11.65;;;4.00;99.90;;;;;;1987871;72;21586;-81
2021/04/20 05:06:06;;;;;;;20.48;10.88;;;4.00;99.90;;;;;;1987998;71;21081;-80
2021/04/20 05:08:32;;;;;;;19.10;11.65;;;4.10;99.90;;;;;;1988092;72;21067;-81
2021/04/20 05:10:58;;;;;;;18.65;11.08;;;4.00;99.90;;;;;;1988138;72;21076;-83
2021/04/20 05:13:24;;;;;;;17.52;11.08;;;4.10;99.90;;;;;;1988066;72;21125;-81
2021/04/20 05:15:50;;;;;;;16.50;10.43;;;4.10;99.90;;;;;;1988000;72;21121;-81
2021/04/20 05:18:17;;;;;;;15.83;10.78;;;4.10;99.90;;;;;;1988011;71;21073;-78
2021/04/20 05:20:43;;;;;;;20.82;11.22;;;4.10;99.90;;;;;;1987710;72;21110;-78
2021/04/20 05:23:09;;;;;;;25.97;10.70;;;4.10;99.90;;;;;;1987799;72;21139;-81
2021/04/20 05:25:35;;;;;;;21.48;11.97;;;4.10;99.90;;;;;;1987725;71;21548;-79
2021/04/20 05:28:01;;;;;;;18.75;10.68;;;4.20;99.90;;;;;;1987927;72;21505;-79
2021/04/20 05:30:27;;;;;;;18.75;10.93;;;4.30;99.90;;;;;;1987749;71;21509;-79
2021/04/20 05:32:54;;;;;;;18.00;9.93;;;4.30;99.90;;;;;;1987672;72;21630;-79
2021/04/20 05:35:20;;;;;;;26.02;11.80;;;4.20;99.90;;;;;;1987718;72;21082;-79
2021/04/20 05:37:46;;;;;;;16.95;9.85;;;4.30;99.90;;;;;;1987851;71;21065;-82
2021/04/20 05:40:13;;;;;;;19.48;10.20;;;4.30;99.90;;;;;;1987774;71;21115;-83
2021/04/20 05:42:39;;;;;;;24.85;11.05;;;4.30;99.90;;;;;;1987963;72;21135;-84
2021/04/20 05:45:05;;;;;;;17.90;9.75;;;4.50;99.90;;;;;;1987749;72;21084;-80
2021/04/20 05:47:31;;;;;;;17.48;11.22;;;4.60;99.90;;;;;;1987862;72;21085;-83
2021/04/20 05:49:57;;;;;;;16.60;10.68;;;4.60;99.90;;;;;;1987841;72;21070;-79
2021/04/20 05:52:24;;;;;;;20.43;10.58;;;4.70;99.90;;;;;;1987868;71;21197;-79
2021/04/20 05:54:50;;;;;;;18.12;10.10;;;4.70;99.90;;;;;;1987494;72;21522;-78
2021/04/20 05:57:16;;;;;;;17.95;9.40;;;4.60;99.90;;;;;;1987907;71;21045;-76
2021/04/20 05:59:42;;;;;;;16.65;10.43;;;4.60;99.90;;;;;;1987618;72;21025;-71
2021/04/20 06:02:09;;;;;;;20.88;11.40;;;4.70;99.90;;;;;;1987766;72;21086;-78
2021/04/20 06:04:35;;;;;;;24.15;11.95;;;4.70;99.90;;;;;;1987579;72;21080;-82
2021/04/20 06:07:01;;;;;;;18.50;12.60;;;4.90;99.90;;;;;;1987886;72;21081;-80
2021/04/20 06:09:27;;;;;;;24.95;12.68;;;4.90;99.90;;;;;;1987774;72;21017;-80
2021/04/20 06:11:54;;;;;;;19.90;11.45;;;5.00;99.90;;;;;;1987994;72;21140;-79
2021/04/20 06:14:20;;;;;;;19.95;11.85;;;5.00;99.90;;;;;;1987938;71;21469;-80
2021/04/20 06:16:46;;;;;;;17.37;10.55;;;5.10;99.90;;;;;;1987823;72;21513;-80
2021/04/20 06:19:12;;;;;;;20.05;10.88;;;5.20;99.90;;;;;;1987998;72;21466;-81
2021/04/20 06:21:39;;;;;;;17.73;11.38;;;5.40;99.90;;;;;;1987815;71;21070;-80
2021/04/20 06:24:05;;;;;;;19.17;10.58;;;5.40;99.90;;;;;;1987839;72;21109;-81
2021/04/20 06:26:31;;;;;;;18.87;10.13;;;5.30;99.90;;;;;;1987750;72;21183;-81
2021/04/20 06:28:57;;;;;;;17.27;9.85;;;5.30;99.90;;;;;;1987698;71;21155;-81
2021/04/20 06:31:23;;;;;;;20.85;10.28;;;5.30;99.90;;;;;;1987857;71;21069;-81
2021/04/20 06:33:49;;;;;;;22.77;10.58;;;5.30;99.90;;;;;;1987900;72;21044;-80
2021/04/20 06:36:15;;;;;;;20.12;10.68;;;5.40;99.90;;;;;;1987711;72;21049;-80
2021/04/20 06:38:41;;;;;;;31.33;11.65;;;5.40;99.90;;;;;;1987975;72;21147;-80
2021/04/20 06:41:08;;;;;;;23.85;10.93;;;5.50;99.90;;;;;;1988003;71;21034;-80
2021/04/20 06:43:34;;;;;;;25.20;10.23;;;5.50;99.90;;;;;;1988133;72;21142;-79
2021/04/20 06:46:00;;;;;;;21.87;10.85;;;5.80;99.90;;;;;;1988008;72;21053;-80
2021/04/20 06:48:27;;;;;;;19.32;10.40;;;5.90;99.90;;;;;;1988027;72;21048;-79
2021/04/20 06:50:53;;;;;;;18.20;10.10;;;5.90;99.90;;;;;;1987864;72;21132;-80
2021/04/20 06:53:19;;;;;;;19.35;10.28;;;6.20;99.90;;;;;;1987665;72;21052;-81
2021/04/20 06:55:45;;;;;;;16.10;10.05;;;6.30;99.90;;;;;;1992787;71;21064;-81
2021/04/20 06:58:11;;;;;;;18.05;10.28;;;6.50;99.90;;;;;;1988604;71;21222;-82
2021/04/20 07:00:37;;;;;;;19.20;9.98;;;6.50;99.90;;;;;;1988116;71;21107;-81
2021/04/20 07:03:03;;;;;;;16.65;9.90;;;6.70;99.90;;;;;;1988845;71;21126;-81
2021/04/20 07:05:30;;;;;;;22.55;9.75;;;6.70;99.90;;;;;;1987944;72;21069;-80
2021/04/20 07:07:56;;;;;;;16.27;10.25;;;7.10;99.90;;;;;;1987853;72;21077;-80
2021/04/20 07:10:22;;;;;;;22.27;10.88;;;7.40;99.90;;;;;;1987813;72;21046;-80
2021/04/20 07:12:48;;;;;;;18.62;9.88;;;7.50;99.90;;;;;;1987957;72;21066;-81
2021/04/20 07:15:14;;;;;;;18.15;11.12;;;7.60;99.90;;;;;;1988517;71;21592;-81
2021/04/20 07:17:41;;;;;;;18.12;11.03;;;7.80;99.90;;;;;;1988195;72;21501;-81
2021/04/20 07:20:07;;;;;;;21.90;11.95;;;7.60;99.90;;;;;;1990293;71;21597;-81
2021/04/20 07:22:37;;;;;;;20.68;10.95;;;7.80;99.90;;;;;;1987523;71;21503;-81
2021/04/20 07:25:01;;;;;;;23.62;11.57;;;8.00;99.90;;;;;;1987415;71;21146;-81
2021/04/20 07:27:27;;;;;;;22.40;11.53;;;7.90;99.90;;;;;;1987714;72;21086;-81
2021/04/20 07:29:54;;;;;;;20.37;10.60;;;7.90;99.90;;;;;;1987878;72;21038;-83
2021/04/20 07:32:20;;;;;;;18.87;10.32;;;7.70;99.90;;;;;;1987667;72;21543;-82
2021/04/20 07:34:46;;;;;;;19.95;10.88;;;7.90;99.90;;;;;;1987836;71;21409;-81
2021/04/20 07:37:12;;;;;;;17.27;10.25;;;7.90;99.90;;;;;;1988018;71;21582;-84
2021/04/20 07:39:39;;;;;;;19.12;9.48;;;8.30;99.90;;;;;;1988190;71;21485;-81
2021/04/20 07:42:05;;;;;;;17.92;10.58;;;8.70;99.90;;;;;;1987951;72;21097;-82
2021/04/20 07:44:31;;;;;;;22.75;10.30;;;8.80;99.90;;;;;;1987981;72;21049;-83
2021/04/20 07:46:57;;;;;;;25.48;9.95;;;8.80;99.90;;;;;;1987947;71;21069;-81
2021/04/20 07:49:23;;;;;;;21.77;10.32;;;9.00;99.90;;;;;;1988106;71;21599;-86
2021/04/20 07:51:50;;;;;;;19.62;10.03;;;9.50;99.90;;;;;;1987957;72;21457;-81
2021/04/20 07:54:16;;;;;;;17.80;8.98;;;10.00;99.90;;;;;;1987955;72;21104;-84
2021/04/20 07:56:45;;;;;;;22.37;9.35;;;10.30;99.90;;;;;;1988033;72;21072;-85
2021/04/20 07:59:10;;;;;;;18.82;8.78;;;10.50;99.90;;;;;;1987710;71;21089;-85
2021/04/20 08:01:36;;;;;;;17.87;9.60;;;10.40;99.90;;;;;;1987812;72;21073;-82
2021/04/20 08:04:02;;;;;;;15.78;7.97;;;9.90;99.90;;;;;;1987779;72;21233;-84
2021/04/20 08:06:28;;;;;;;16.75;8.73;;;10.30;99.90;;;;;;1987801;72;21069;-85
2021/04/20 08:08:57;;;;;;;22.20;9.35;;;10.70;99.90;;;;;;1987663;71;21125;-79
2021/04/20 08:11:22;;;;;;;19.62;9.30;;;10.80;99.90;;;;;;1987689;71;21466;-79
2021/04/20 08:13:49;;;;;;;20.60;9.70;;;10.90;99.90;;;;;;1987584;72;21490;-80
2021/04/20 08:16:15;;;;;;;16.07;9.00;;;11.20;99.90;;;;;;1987580;72;21560;-79
2021/04/20 08:18:41;;;;;;;23.27;10.00;;;11.10;99.90;;;;;;1987664;72;21021;-81
2021/04/20 08:21:07;;;;;;;20.05;9.18;;;11.20;99.90;;;;;;1987828;72;21045;-81
2021/04/20 08:23:33;;;;;;;17.77;8.68;;;11.40;99.90;;;;;;1987702;72;21155;-79
2021/04/20 08:25:59;;;;;;;17.32;8.38;;;11.80;99.90;;;;;;1987771;72;21066;-80
2021/04/20 08:28:25;;;;;;;17.30;9.78;;;12.20;99.90;;;;;;1987711;72;21109;-80
2021/04/20 08:30:51;;;;;;;18.25;8.63;;;12.50;99.90;;;;;;1987874;72;21044;-79
2021/04/20 08:33:18;;;;;;;21.07;9.33;;;13.00;99.90;;;;;;1987922;72;21069;-80
2021/04/20 08:35:44;;;;;;;19.10;8.73;;;13.40;99.90;;;;;;1987971;71;21510;-84
2021/04/20 08:38:10;;;;;;;18.52;9.28;;;13.80;99.90;;;;;;1988506;72;20994;-84
2021/04/20 08:40:38;;;;;;;17.95;8.90;;;13.60;99.90;;;;;;1988413;72;21074;-79
2021/04/20 08:43:04;;;;;;;15.98;8.85;;;13.50;99.90;;;;;;1987990;72;21146;-73
2021/04/20 08:45:30;;;;;;;16.65;9.58;;;13.30;99.90;;;;;;1987959;71;21513;-82
2021/04/20 08:47:58;;;;;;;18.62;9.43;;;12.30;99.90;;;;;;1987965;72;21500;-81
2021/04/20 08:50:24;;;;;;;15.13;8.63;;;12.60;99.90;;;;;;1987932;71;21140;-80
2021/04/20 08:52:50;;;;;;;15.05;7.87;;;13.30;99.90;;;;;;1987904;72;21032;-81
2021/04/20 08:55:16;;;;;;;21.85;8.53;;;13.70;99.90;;;;;;1987976;72;21139;-81
2021/04/20 08:57:42;;;;;;;16.42;8.40;;;13.70;99.90;;;;;;1988069;72;21147;-80
2021/04/20 09:00:09;;;;;;;14.10;7.35;;;13.30;99.90;;;;;;1988036;72;21082;-81
2021/04/20 09:02:36;;;;;;;24.15;9.30;;;13.60;99.90;;;;;;1987993;72;21124;-81
2021/04/20 09:05:02;;;;;;;13.58;7.70;;;14.40;99.90;;;;;;1988089;72;21058;-81
2021/04/20 09:07:28;;;;;;;14.25;7.67;;;13.80;99.90;;;;;;1988045;71;21146;-81
2021/04/20 09:09:54;;;;;;;18.37;8.45;;;13.20;99.90;;;;;;1987996;72;21066;-80
2021/04/20 09:12:21;;;;;;;18.42;8.80;;;13.20;99.90;;;;;;1987985;71;21120;-80
2021/04/20 09:14:48;;;;;;;25.55;7.75;;;13.70;99.90;;;;;;1987775;72;21053;-80
2021/04/20 09:17:14;;;;;;;16.70;7.28;;;13.90;99.90;;;;;;1987914;72;21074;-80
2021/04/20 09:19:40;;;;;;;15.58;7.72;;;14.10;99.90;;;;;;1987877;72;21070;-79
2021/04/20 09:22:07;;;;;;;12.13;7.25;;;13.60;99.90;;;;;;1987928;72;21066;-80
2021/04/20 09:24:36;;;;;;;13.20;6.40;;;13.70;99.90;;;;;;1987762;72;21513;-80
2021/04/20 09:27:01;;;;;;;16.20;6.90;;;14.00;99.90;;;;;;1988740;71;21152;-80
2021/04/20 09:29:27;;;;;;;15.38;7.42;;;13.50;99.90;;;;;;1987727;72;21077;-80
2021/04/20 09:31:53;;;;;;;10.95;6.08;;;14.00;99.90;;;;;;1991493;71;21021;-80
2021/04/20 09:34:19;;;;;;;14.40;6.53;;;14.30;99.90;;;;;;1988767;71;21056;-80
2021/04/20 09:36:45;;;;;;;15.55;6.80;;;14.70;99.90;;;;;;1994420;72;21168;-80
2021/04/20 09:39:11;;;;;;;14.03;7.08;;;14.70;99.90;;;;;;1987984;71;21050;-79
2021/04/20 09:41:37;;;;;;;12.75;6.55;;;14.40;99.90;;;;;;1988709;72;21081;-78
2021/04/20 09:44:04;;;;;;;11.00;6.30;;;14.40;99.90;;;;;;1989031;72;21146;-79
2021/04/20 09:46:30;;;;;;;11.55;5.42;;;14.80;99.90;;;;;;1987850;72;21085;-79
2021/04/20 09:48:56;;;;;;;9.15;5.00;;;14.90;99.90;;;;;;1987867;72;21128;-79
2021/04/20 09:51:23;;;;;;;10.32;5.80;;;15.60;99.90;;;;;;1987884;72;21065;-80
2021/04/20 09:53:49;;;;;;;10.88;5.33;;;15.50;99.90;;;;;;1987889;72;21041;-79
2021/04/20 09:56:16;;;;;;;9.53;5.08;;;15.40;99.90;;;;;;1988282;71;21132;-79
2021/04/20 09:58:43;;;;;;;11.10;5.83;;;15.00;99.90;;;;;;1988015;72;21525;-79
2021/04/20 10:01:09;;;;;;;10.38;5.20;;;14.70;99.90;;;;;;1990330;72;21546;-79
2021/04/20 10:03:35;;;;;;;10.88;5.62;;;14.80;99.90;;;;;;1989273;71;21616;-78
2021/04/20 10:06:01;;;;;;;14.63;6.20;;;15.00;99.90;;;;;;1990185;72;21058;-79
2021/04/20 10:08:29;;;;;;;11.95;5.78;;;15.50;99.90;;;;;;1989120;72;21511;-78
2021/04/20 10:10:55;;;;;;;11.73;5.12;;;15.90;99.90;;;;;;1988001;72;21129;-79
2021/04/20 10:13:21;;;;;;;14.03;5.33;;;16.00;99.90;;;;;;1988133;72;21053;-79
2021/04/20 10:15:47;;;;;;;12.15;5.78;;;16.20;99.90;;;;;;1988102;72;21162;-76
2021/04/20 10:18:13;;;;;;;10.18;5.05;;;16.70;99.90;;;;;;1988130;72;21114;-78
2021/04/20 10:20:40;;;;;;;8.83;5.45;;;16.20;99.90;;;;;;1987888;72;21040;-77
2021/04/20 10:23:06;;;;;;;11.35;5.25;;;15.20;99.90;;;;;;1988052;72;21121;-79
2021/04/20 10:25:33;;;;;;;13.05;4.70;;;14.80;99.90;;;;;;1988127;72;21053;-80
2021/04/20 10:28:00;;;;;;;8.55;4.40;;;15.40;99.90;;;;;;1988364;72;21073;-80
2021/04/20 10:30:26;;;;;;;8.05;4.50;;;15.80;99.90;;;;;;1988230;71;21545;-80
2021/04/20 10:32:52;;;;;;;9.78;4.65;;;16.60;99.90;;;;;;1988223;72;21497;-81
2021/04/20 10:35:18;;;;;;;8.98;4.22;;;16.80;99.90;;;;;;1988720;72;21457;-81
2021/04/20 10:37:44;;;;;;;15.72;4.60;;;16.00;99.90;;;;;;1988514;72;21132;-80
2021/04/20 10:40:11;;;;;;;8.35;4.53;;;16.70;99.90;;;;;;1988789;72;21045;-80
2021/04/20 10:42:37;;;;;;;7.95;4.30;;;17.70;99.90;;;;;;1988714;72;21062;-80
2021/04/20 10:45:04;;;;;;;8.95;4.35;;;18.30;99.90;;;;;;1988331;71;21490;-80
2021/04/20 10:47:32;;;;;;;10.72;4.20;;;18.50;99.90;;;;;;1987929;72;21512;-82
2021/04/20 10:50:00;;;;;;;9.13;3.33;;;17.90;99.90;;;;;;1988085;71;21065;-80
2021/04/20 10:52:26;;;;;;;8.13;4.10;;;17.70;99.90;;;;;;1988152;72;21040;-81
2021/04/20 10:54:53;;;;;;;11.83;5.55;;;17.80;99.90;;;;;;1988164;72;21118;-80
2021/04/20 10:57:19;;;;;;;10.05;5.35;;;17.30;99.90;;;;;;1988133;71;21045;-79
2021/04/20 10:59:45;;;;;;;9.75;5.17;;;17.60;99.90;;;;;;1988338;72;21071;-80
2021/04/20 11:02:11;;;;;;;13.43;5.05;;;17.50;99.90;;;;;;1988167;72;21037;-81
2021/04/20 11:04:37;;;;;;;10.20;5.15;;;17.80;99.90;;;;;;1988070;72;21578;-80
2021/04/20 11:07:03;;;;;;;10.35;4.78;;;18.10;99.90;;;;;;1988062;71;21571;-81
2021/04/20 11:09:30;;;;;;;6.85;4.87;;;17.30;99.90;;;;;;1987927;71;21057;-82
2021/04/20 11:11:57;;;;;;;8.60;4.83;;;16.80;99.90;;;;;;1987979;72;21472;-83
2021/04/20 11:14:23;;;;;;;6.62;4.08;;;16.10;99.90;;;;;;1988083;72;21497;-81
2021/04/20 11:16:49;;;;;;;8.88;4.47;;;16.30;99.90;;;;;;1987915;71;21526;-81
2021/04/20 11:19:17;;;;;;;7.28;4.50;;;16.60;99.90;;;;;;1988163;72;21584;-81
2021/04/20 11:21:43;;;;;;;7.97;4.65;;;16.90;99.90;;;;;;1988141;72;21078;-81
2021/04/20 11:24:09;;;;;;;8.93;4.47;;;16.90;99.90;;;;;;1988018;72;21061;-84
2021/04/20 11:26:35;;;;;;;9.50;4.35;;;16.60;99.90;;;;;;1987914;72;21602;-81
2021/04/20 11:29:02;;;;;;;10.23;5.00;;;16.60;99.90;;;;;;1987969;71;21077;-82
2021/04/20 11:31:28;;;;;;;6.92;4.33;;;16.50;99.90;;;;;;1987884;72;21081;-82
2021/04/20 11:33:54;;;;;;;9.95;4.60;;;16.30;99.90;;;;;;1987922;72;21069;-82
2021/04/20 11:36:20;;;;;;;8.88;4.50;;;16.70;99.90;;;;;;1987927;72;21139;-83
2021/04/20 11:38:46;;;;;;;9.38;4.85;;;16.80;99.90;;;;;;1988294;72;21147;-81
2021/04/20 11:41:13;;;;;;;10.45;5.03;;;16.40;99.90;;;;;;1988214;72;21049;-82
2021/04/20 11:43:39;;;;;;;6.92;4.35;;;16.30;99.90;;;;;;1988147;72;21065;-81
2021/04/20 11:46:05;;;;;;;8.20;4.03;;;16.50;99.90;;;;;;1988059;72;21097;-80
2021/04/20 11:48:32;;;;;;;9.40;4.28;;;16.60;99.90;;;;;;1988228;72;21049;-83
2021/04/20 11:50:58;;;;;;;9.30;4.65;;;16.60;99.90;;;;;;1988095;72;21077;-77
2021/04/20 11:56:09;;;;;;;8.35;4.50;;;17.10;99.90;;;;;;1931679;74;21094;-76
2021/04/20 11:58:36;;;;;;;7.85;3.75;;;17.70;99.90;;;;;;1930697;74;21102;-79
2021/04/20 12:01:02;;;;;;;6.05;3.72;;;18.50;99.90;;;;;;1930698;74;21053;-77
2021/04/20 12:03:28;;;;;;;9.48;3.65;;;18.60;99.90;;;;;;1930658;73;21037;-77
2021/04/20 12:05:55;;;;;;;6.25;3.42;;;18.70;99.90;;;;;;1930648;73;21065;-80
2021/04/20 12:08:21;;;;;;;9.85;4.35;;;19.30;99.90;;;;;;1933374;74;21062;-80
2021/04/20 12:10:47;;;;;;;4.95;3.25;;;19.10;99.90;;;;;;1930644;74;21038;-77
2021/04/20 12:13:13;;;;;;;5.83;3.30;;;18.30;99.90;;;;;;1930738;74;21038;-79
2021/04/20 12:15:40;;;;;;;4.92;3.08;;;17.30;99.90;;;;;;1932226;74;21061;-79
2021/04/20 12:18:06;;;;;;;6.12;3.25;;;16.50;99.90;;;;;;1933900;74;21069;-76
2021/04/20 12:20:32;;;;;;;7.78;3.90;;;16.40;99.90;;;;;;1934374;74;21017;-78
2021/04/20 12:22:58;;;;;;;5.87;3.10;;;16.60;99.90;;;;;;1934067;74;21060;-79
2021/04/20 12:25:24;;;;;;;7.78;3.47;;;16.30;99.90;;;;;;1933823;74;21119;-75
2021/04/20 12:27:51;;;;;;;7.12;3.87;;;16.20;99.90;;;;;;1933667;74;21115;-77
2021/04/20 12:30:17;;;;;;;7.45;3.52;;;16.60;99.90;;;;;;1933341;74;21528;-77
2021/04/20 12:32:43;;;;;;;8.03;3.40;;;18.30;99.90;;;;;;1931430;74;21507;-74
2021/04/20 12:35:09;;;;;;;5.03;3.27;;;19.00;99.90;;;;;;1930679;74;21512;-73